sensor_id;sensor_type;location;lat;lon;timestamp;temperature;humidity
3684;DHT22;1858;48.716;9.648;2022-07-05T00:01:02;16.60;1.00
3684;DHT22;1858;48.716;9.648;2022-07-05T00:03:30;16.50;1.00
3684;DHT22;1858;48.716;9.648;2022-07-05T00:05:59;16.50;1.00
3684;DHT22;1858;48.716;9.648;2022-07-05T00:08:27;16.50;40.30
3684;DHT22;1858;48.716;9.648;2022-07-05T00:10:56;16.50;20.00
3684;DHT22;1858;48.716;9.648;2022-07-05T00:13:24;16.50;28.30
3684;DHT22;1858;48.716;9.648;2022-07-05T00:15:53;16.40;60.10
3684;DHT22;1858;48.716;9.648;2022-07-05T00:18:21;16.30;99.90
3684;DHT22;1858;48.716;9.648;2022-07-05T00:20:49;16.30;99.90
3684;DHT22;1858;48.716;9.648;2022-07-05T00:23:18;16.30;88.70
3684;DHT22;1858;48.716;9.648;2022-07-05T00:25:46;16.20;99.90
3684;DHT22;1858;48.716;9.648;2022-07-05T00:28:15;16.20;99.90
3684;DHT22;1858;48.716;9.648;2022-07-05T00:30:44;16.00;99.90
3684;DHT22;1858;48.716;9.648;2022-07-05T00:33:13;16.00;99.90
3684;DHT22;1858;48.716;9.648;2022-07-05T00:35:41;16.00;99.90
3684;DHT22;1858;48.716;9.648;2022-07-05T00:38:10;15.90;99.90
3684;DHT22;1858;48.716;9.648;2022-07-05T00:40:38;16.00;99.90
3684;DHT22;1858;48.716;9.648;2022-07-05T00:43:12;16.10;99.90
3684;DHT22;1858;48.716;9.648;2022-07-05T00:45:40;16.00;99.90
3684;DHT22;1858;48.716;9.648;2022-07-05T00:48:09;15.90;99.90
3684;DHT22;1858;48.716;9.648;2022-07-05T00:50:37;15.90;99.90
3684;DHT22;1858;48.716;9.648;2022-07-05T00:53:07;16.00;99.90
3684;DHT22;1858;48.716;9.648;2022-07-05T00:55:36;15.90;99.90
3684;DHT22;1858;48.716;9.648;2022-07-05T00:58:04;15.90;99.90
3684;DHT22;1858;48.716;9.648;2022-07-05T01:00:33;15.90;99.90
3684;DHT22;1858;48.716;9.648;2022-07-05T01:03:02;15.90;99.90
3684;DHT22;1858;48.716;9.648;2022-07-05T01:05:32;15.90;99.90
3684;DHT22;1858;48.716;9.648;2022-07-05T01:08:02;15.90;99.90
3684;DHT22;1858;48.716;9.648;2022-07-05T01:10:31;15.80;99.90
3684;DHT22;1858;48.716;9.648;2022-07-05T01:13:01;15.80;99.90
3684;DHT22;1858;48.716;9.648;2022-07-05T01:15:30;15.70;99.90
3684;DHT22;1858;48.716;9.648;2022-07-05T01:17:59;15.60;99.90
3684;DHT22;1858;48.716;9.648;2022-07-05T01:20:27;15.60;99.90
3684;DHT22;1858;48.716;9.648;2022-07-05T01:22:57;15.60;99.90
3684;DHT22;1858;48.716;9.648;2022-07-05T01:25:28;15.50;99.90
3684;DHT22;1858;48.716;9.648;2022-07-05T01:27:58;15.50;99.90
3684;DHT22;1858;48.716;9.648;2022-07-05T01:30:27;15.50;99.90
3684;DHT22;1858;48.716;9.648;2022-07-05T01:32:55;15.40;99.90
3684;DHT22;1858;48.716;9.648;2022-07-05T01:35:24;15.40;99.90
3684;DHT22;1858;48.716;9.648;2022-07-05T01:37:52;15.30;99.90
3684;DHT22;1858;48.716;9.648;2022-07-05T01:40:40;15.30;99.90
3684;DHT22;1858;48.716;9.648;2022-07-05T01:43:09;15.30;1.00
3684;DHT22;1858;48.716;9.648;2022-07-05T01:45:37;15.30;99.90
3684;DHT22;1858;48.716;9.648;2022-07-05T01:48:33;15.20;99.90
3684;DHT22;1858;48.716;9.648;2022-07-05T01:51:09;15.10;1.00
3684;DHT22;1858;48.716;9.648;2022-07-05T01:53:39;15.10;1.00
3684;DHT22;1858;48.716;9.648;2022-07-05T01:56:07;15.10;1.00
3684;DHT22;1858;48.716;9.648;2022-07-05T01:58:36;15.00;1.00
3684;DHT22;1858;48.716;9.648;2022-07-05T02:01:05;15.00;1.00
3684;DHT22;1858;48.716;9.648;2022-07-05T02:03:33;15.00;1.00
3684;DHT22;1858;48.716;9.648;2022-07-05T02:06:22;15.00;1.00
3684;DHT22;1858;48.716;9.648;2022-07-05T02:08:49;14.90;1.00
3684;DHT22;1858;48.716;9.648;2022-07-05T02:11:17;14.90;1.00
3684;DHT22;1858;48.716;9.648;2022-07-05T02:13:45;14.90;1.00
3684;DHT22;1858;48.716;9.648;2022-07-05T02:16:12;14.90;1.00
3684;DHT22;1858;48.716;9.648;2022-07-05T02:18:40;14.90;1.00
3684;DHT22;1858;48.716;9.648;2022-07-05T02:21:07;14.80;1.00
3684;DHT22;1858;48.716;9.648;2022-07-05T02:23:36;14.80;1.00
3684;DHT22;1858;48.716;9.648;2022-07-05T02:26:04;14.70;1.00
3684;DHT22;1858;48.716;9.648;2022-07-05T02:28:32;14.70;1.00
3684;DHT22;1858;48.716;9.648;2022-07-05T02:31:01;14.70;1.00
3684;DHT22;1858;48.716;9.648;2022-07-05T02:33:29;14.70;1.00
3684;DHT22;1858;48.716;9.648;2022-07-05T02:36:04;14.70;1.00
3684;DHT22;1858;48.716;9.648;2022-07-05T02:38:28;14.70;1.00
3684;DHT22;1858;48.716;9.648;2022-07-05T02:40:56;14.80;16.70
3684;DHT22;1858;48.716;9.648;2022-07-05T02:43:25;14.80;61.10
3684;DHT22;1858;48.716;9.648;2022-07-05T02:45:53;14.90;55.50
3684;DHT22;1858;48.716;9.648;2022-07-05T02:48:21;14.90;1.00
3684;DHT22;1858;48.716;9.648;2022-07-05T02:50:50;14.80;1.00
3684;DHT22;1858;48.716;9.648;2022-07-05T02:53:18;14.80;1.00
3684;DHT22;1858;48.716;9.648;2022-07-05T02:55:47;14.70;1.00
3684;DHT22;1858;48.716;9.648;2022-07-05T02:58:15;14.70;1.00
3684;DHT22;1858;48.716;9.648;2022-07-05T03:00:46;14.70;1.00
3684;DHT22;1858;48.716;9.648;2022-07-05T03:03:15;14.60;1.00
3684;DHT22;1858;48.716;9.648;2022-07-05T03:05:44;14.60;1.00
3684;DHT22;1858;48.716;9.648;2022-07-05T03:08:12;14.60;1.00
3684;DHT22;1858;48.716;9.648;2022-07-05T03:10:41;14.50;1.00
3684;DHT22;1858;48.716;9.648;2022-07-05T03:13:09;14.50;1.00
3684;DHT22;1858;48.716;9.648;2022-07-05T03:15:38;14.50;1.00
3684;DHT22;1858;48.716;9.648;2022-07-05T03:18:06;14.40;1.00
3684;DHT22;1858;48.716;9.648;2022-07-05T03:20:35;14.30;1.00
3684;DHT22;1858;48.716;9.648;2022-07-05T03:23:03;14.30;1.00
3684;DHT22;1858;48.716;9.648;2022-07-05T03:25:32;14.30;5.20
3684;DHT22;1858;48.716;9.648;2022-07-05T03:28:00;14.30;21.40
3684;DHT22;1858;48.716;9.648;2022-07-05T03:30:30;14.30;2.20
3684;DHT22;1858;48.716;9.648;2022-07-05T03:32:59;14.30;1.00
3684;DHT22;1858;48.716;9.648;2022-07-05T03:35:28;14.30;1.00
3684;DHT22;1858;48.716;9.648;2022-07-05T03:37:56;14.20;1.00
3684;DHT22;1858;48.716;9.648;2022-07-05T03:40:25;14.20;1.00
3684;DHT22;1858;48.716;9.648;2022-07-05T03:42:53;14.20;1.00
3684;DHT22;1858;48.716;9.648;2022-07-05T03:45:21;14.20;37.80
3684;DHT22;1858;48.716;9.648;2022-07-05T03:47:50;14.30;28.30
3684;DHT22;1858;48.716;9.648;2022-07-05T03:50:18;14.30;39.50
3684;DHT22;1858;48.716;9.648;2022-07-05T03:52:47;14.30;9.50
3684;DHT22;1858;48.716;9.648;2022-07-05T03:55:15;14.30;9.80
3684;DHT22;1858;48.716;9.648;2022-07-05T03:57:44;14.30;32.50
3684;DHT22;1858;48.716;9.648;2022-07-05T04:00:14;14.30;14.80
3684;DHT22;1858;48.716;9.648;2022-07-05T04:02:42;14.30;99.90
3684;DHT22;1858;48.716;9.648;2022-07-05T04:05:11;14.30;99.90
3684;DHT22;1858;48.716;9.648;2022-07-05T04:07:53;14.30;99.90
3684;DHT22;1858;48.716;9.648;2022-07-05T04:10:22;14.30;99.90
3684;DHT22;1858;48.716;9.648;2022-07-05T04:12:51;14.30;99.90
3684;DHT22;1858;48.716;9.648;2022-07-05T04:15:19;14.40;99.90
3684;DHT22;1858;48.716;9.648;2022-07-05T04:17:53;14.50;99.90
3684;DHT22;1858;48.716;9.648;2022-07-05T04:20:23;14.60;99.90
3684;DHT22;1858;48.716;9.648;2022-07-05T04:22:52;14.60;74.10
3684;DHT22;1858;48.716;9.648;2022-07-05T04:25:21;14.70;49.90
3684;DHT22;1858;48.716;9.648;2022-07-05T04:27:52;14.70;1.00
3684;DHT22;1858;48.716;9.648;2022-07-05T04:30:23;14.80;12.10
3684;DHT22;1858;48.716;9.648;2022-07-05T04:32:52;14.90;1.00
3684;DHT22;1858;48.716;9.648;2022-07-05T04:35:20;15.00;1.00
3684;DHT22;1858;48.716;9.648;2022-07-05T04:37:49;15.10;1.00
3684;DHT22;1858;48.716;9.648;2022-07-05T04:40:17;15.10;1.00
3684;DHT22;1858;48.716;9.648;2022-07-05T04:42:46;15.20;1.00
3684;DHT22;1858;48.716;9.648;2022-07-05T04:45:14;15.30;1.00
3684;DHT22;1858;48.716;9.648;2022-07-05T04:47:43;15.40;1.00
3684;DHT22;1858;48.716;9.648;2022-07-05T04:50:11;15.40;99.90
3684;DHT22;1858;48.716;9.648;2022-07-05T04:52:40;15.30;99.90
3684;DHT22;1858;48.716;9.648;2022-07-05T04:55:09;15.30;99.90
3684;DHT22;1858;48.716;9.648;2022-07-05T04:57:41;15.40;1.00
3684;DHT22;1858;48.716;9.648;2022-07-05T05:00:14;15.50;1.00
3684;DHT22;1858;48.716;9.648;2022-07-05T05:03:00;15.70;99.90
3684;DHT22;1858;48.716;9.648;2022-07-05T05:05:29;15.90;99.90
3684;DHT22;1858;48.716;9.648;2022-07-05T05:07:57;15.90;99.90
3684;DHT22;1858;48.716;9.648;2022-07-05T05:10:26;16.10;99.90
3684;DHT22;1858;48.716;9.648;2022-07-05T05:12:54;16.20;99.90
3684;DHT22;1858;48.716;9.648;2022-07-05T05:15:22;16.30;99.90
3684;DHT22;1858;48.716;9.648;2022-07-05T05:17:51;16.40;99.90
3684;DHT22;1858;48.716;9.648;2022-07-05T05:20:20;16.50;99.90
3684;DHT22;1858;48.716;9.648;2022-07-05T05:22:49;16.60;99.90
3684;DHT22;1858;48.716;9.648;2022-07-05T05:25:17;16.80;93.70
3684;DHT22;1858;48.716;9.648;2022-07-05T05:27:49;16.90;1.00
3684;DHT22;1858;48.716;9.648;2022-07-05T05:30:19;17.00;1.00
3684;DHT22;1858;48.716;9.648;2022-07-05T05:32:47;17.20;1.00
3684;DHT22;1858;48.716;9.648;2022-07-05T05:35:16;17.30;1.00
3684;DHT22;1858;48.716;9.648;2022-07-05T05:37:53;17.40;1.00
3684;DHT22;1858;48.716;9.648;2022-07-05T05:40:23;17.50;1.00
3684;DHT22;1858;48.716;9.648;2022-07-05T05:42:54;17.70;1.00
3684;DHT22;1858;48.716;9.648;2022-07-05T05:45:23;17.90;1.00
3684;DHT22;1858;48.716;9.648;2022-07-05T05:47:54;18.10;1.00
3684;DHT22;1858;48.716;9.648;2022-07-05T05:50:28;18.30;1.00
3684;DHT22;1858;48.716;9.648;2022-07-05T05:52:57;18.50;1.00
3684;DHT22;1858;48.716;9.648;2022-07-05T05:55:29;18.60;1.00
3684;DHT22;1858;48.716;9.648;2022-07-05T05:57:57;18.70;1.00
3684;DHT22;1858;48.716;9.648;2022-07-05T06:00:28;18.90;1.00
3684;DHT22;1858;48.716;9.648;2022-07-05T06:02:57;18.90;1.00
3684;DHT22;1858;48.716;9.648;2022-07-05T06:05:25;19.00;99.90
3684;DHT22;1858;48.716;9.648;2022-07-05T06:07:55;19.10;99.90
3684;DHT22;1858;48.716;9.648;2022-07-05T06:10:26;19.10;99.90
3684;DHT22;1858;48.716;9.648;2022-07-05T06:13:15;19.30;99.90
3684;DHT22;1858;48.716;9.648;2022-07-05T06:15:43;19.50;99.90
3684;DHT22;1858;48.716;9.648;2022-07-05T06:18:11;19.90;99.90
3684;DHT22;1858;48.716;9.648;2022-07-05T06:20:40;20.10;99.90
3684;DHT22;1858;48.716;9.648;2022-07-05T06:23:08;20.40;99.90
3684;DHT22;1858;48.716;9.648;2022-07-05T06:25:37;20.60;99.90
3684;DHT22;1858;48.716;9.648;2022-07-05T06:28:14;20.90;99.90
3684;DHT22;1858;48.716;9.648;2022-07-05T06:30:44;21.20;99.90
3684;DHT22;1858;48.716;9.648;2022-07-05T06:33:12;21.80;99.90
3684;DHT22;1858;48.716;9.648;2022-07-05T06:35:40;22.50;99.90
3684;DHT22;1858;48.716;9.648;2022-07-05T06:38:08;23.60;99.90
3684;DHT22;1858;48.716;9.648;2022-07-05T06:40:38;25.30;16.80
3684;DHT22;1858;48.716;9.648;2022-07-05T06:43:09;27.00;1.00
3684;DHT22;1858;48.716;9.648;2022-07-05T06:45:37;28.80;1.00
3684;DHT22;1858;48.716;9.648;2022-07-05T06:48:07;30.30;1.00
3684;DHT22;1858;48.716;9.648;2022-07-05T06:50:36;31.50;1.00
3684;DHT22;1858;48.716;9.648;2022-07-05T06:53:05;32.80;1.00
3684;DHT22;1858;48.716;9.648;2022-07-05T06:55:33;34.20;1.00
3684;DHT22;1858;48.716;9.648;2022-07-05T06:58:07;35.40;1.00
3684;DHT22;1858;48.716;9.648;2022-07-05T07:00:35;36.00;1.00
3684;DHT22;1858;48.716;9.648;2022-07-05T07:03:04;36.60;1.00
3684;DHT22;1858;48.716;9.648;2022-07-05T07:05:32;37.10;1.00
3684;DHT22;1858;48.716;9.648;2022-07-05T07:08:01;37.50;99.90
3684;DHT22;1858;48.716;9.648;2022-07-05T07:10:47;37.60;99.90
3684;DHT22;1858;48.716;9.648;2022-07-05T07:13:15;38.20;99.90
3684;DHT22;1858;48.716;9.648;2022-07-05T07:15:44;38.60;99.90
3684;DHT22;1858;48.716;9.648;2022-07-05T07:18:14;38.80;99.90
3684;DHT22;1858;48.716;9.648;2022-07-05T07:20:43;39.10;99.90
3684;DHT22;1858;48.716;9.648;2022-07-05T07:23:11;39.60;99.90
3684;DHT22;1858;48.716;9.648;2022-07-05T07:25:39;39.80;99.90
3684;DHT22;1858;48.716;9.648;2022-07-05T07:28:08;40.10;99.90
3684;DHT22;1858;48.716;9.648;2022-07-05T07:30:36;40.60;99.90
3684;DHT22;1858;48.716;9.648;2022-07-05T07:33:05;41.10;99.90
3684;DHT22;1858;48.716;9.648;2022-07-05T07:35:34;41.20;99.90
3684;DHT22;1858;48.716;9.648;2022-07-05T07:38:02;41.20;99.90
3684;DHT22;1858;48.716;9.648;2022-07-05T07:40:30;41.60;99.90
3684;DHT22;1858;48.716;9.648;2022-07-05T07:42:59;41.60;99.90
3684;DHT22;1858;48.716;9.648;2022-07-05T07:45:27;42.10;99.90
3684;DHT22;1858;48.716;9.648;2022-07-05T07:47:57;42.20;99.90
3684;DHT22;1858;48.716;9.648;2022-07-05T07:50:26;42.40;99.90
3684;DHT22;1858;48.716;9.648;2022-07-05T07:52:55;42.20;99.90
3684;DHT22;1858;48.716;9.648;2022-07-05T07:55:23;42.10;99.90
3684;DHT22;1858;48.716;9.648;2022-07-05T07:57:51;42.20;99.90
3684;DHT22;1858;48.716;9.648;2022-07-05T08:00:20;41.70;99.90
3684;DHT22;1858;48.716;9.648;2022-07-05T08:02:48;42.00;99.90
3684;DHT22;1858;48.716;9.648;2022-07-05T08:05:17;42.30;99.90
3684;DHT22;1858;48.716;9.648;2022-07-05T08:07:45;42.60;99.90
3684;DHT22;1858;48.716;9.648;2022-07-05T08:10:14;42.80;99.90
3684;DHT22;1858;48.716;9.648;2022-07-05T08:12:42;43.00;99.90
3684;DHT22;1858;48.716;9.648;2022-07-05T08:15:10;43.00;99.90
3684;DHT22;1858;48.716;9.648;2022-07-05T08:17:39;43.40;99.90
3684;DHT22;1858;48.716;9.648;2022-07-05T08:20:10;43.60;99.90
3684;DHT22;1858;48.716;9.648;2022-07-05T08:22:57;44.00;99.90
3684;DHT22;1858;48.716;9.648;2022-07-05T08:25:25;44.20;99.90
3684;DHT22;1858;48.716;9.648;2022-07-05T08:27:53;44.70;99.90
3684;DHT22;1858;48.716;9.648;2022-07-05T08:30:23;44.90;99.90
3684;DHT22;1858;48.716;9.648;2022-07-05T08:32:51;45.00;99.90
3684;DHT22;1858;48.716;9.648;2022-07-05T08:35:20;45.00;99.90
3684;DHT22;1858;48.716;9.648;2022-07-05T08:37:48;45.20;99.90
3684;DHT22;1858;48.716;9.648;2022-07-05T08:40:18;45.40;99.90
3684;DHT22;1858;48.716;9.648;2022-07-05T08:42:49;45.70;99.90
3684;DHT22;1858;48.716;9.648;2022-07-05T08:45:18;45.20;99.90
3684;DHT22;1858;48.716;9.648;2022-07-05T08:47:48;45.30;99.90
3684;DHT22;1858;48.716;9.648;2022-07-05T08:50:19;45.50;99.90
3684;DHT22;1858;48.716;9.648;2022-07-05T08:52:48;45.30;99.90
3684;DHT22;1858;48.716;9.648;2022-07-05T08:55:17;45.10;99.90
3684;DHT22;1858;48.716;9.648;2022-07-05T08:57:46;45.10;99.90
3684;DHT22;1858;48.716;9.648;2022-07-05T09:00:15;45.10;99.90
3684;DHT22;1858;48.716;9.648;2022-07-05T09:02:43;45.70;99.90
3684;DHT22;1858;48.716;9.648;2022-07-05T09:05:13;46.20;99.90
3684;DHT22;1858;48.716;9.648;2022-07-05T09:07:48;46.30;99.90
3684;DHT22;1858;48.716;9.648;2022-07-05T09:10:15;46.30;99.90
3684;DHT22;1858;48.716;9.648;2022-07-05T09:12:45;46.40;99.90
3684;DHT22;1858;48.716;9.648;2022-07-05T09:15:13;46.70;99.90
3684;DHT22;1858;48.716;9.648;2022-07-05T09:17:45;46.70;99.90
3684;DHT22;1858;48.716;9.648;2022-07-05T09:23:06;46.60;99.90
3684;DHT22;1858;48.716;9.648;2022-07-05T09:25:35;46.90;99.90
3684;DHT22;1858;48.716;9.648;2022-07-05T09:28:05;46.90;99.90
3684;DHT22;1858;48.716;9.648;2022-07-05T09:30:37;46.40;99.90
3684;DHT22;1858;48.716;9.648;2022-07-05T09:36:01;46.80;99.90
3684;DHT22;1858;48.716;9.648;2022-07-05T09:38:29;47.30;99.90
3684;DHT22;1858;48.716;9.648;2022-07-05T09:40:59;47.10;99.90
3684;DHT22;1858;48.716;9.648;2022-07-05T09:43:29;47.30;99.90
3684;DHT22;1858;48.716;9.648;2022-07-05T09:46:00;47.60;99.90
3684;DHT22;1858;48.716;9.648;2022-07-05T09:48:30;47.60;99.90
3684;DHT22;1858;48.716;9.648;2022-07-05T09:51:07;47.60;99.90
3684;DHT22;1858;48.716;9.648;2022-07-05T09:53:48;46.00;99.90
3684;DHT22;1858;48.716;9.648;2022-07-05T09:56:17;44.50;99.90
3684;DHT22;1858;48.716;9.648;2022-07-05T09:58:46;45.20;99.90
3684;DHT22;1858;48.716;9.648;2022-07-05T10:01:32;45.70;99.90
3684;DHT22;1858;48.716;9.648;2022-07-05T10:04:01;45.70;99.90
3684;DHT22;1858;48.716;9.648;2022-07-05T10:06:31;46.40;99.90
3684;DHT22;1858;48.716;9.648;2022-07-05T10:09:00;46.80;99.90
3684;DHT22;1858;48.716;9.648;2022-07-05T10:11:29;45.00;99.90
3684;DHT22;1858;48.716;9.648;2022-07-05T10:13:59;43.30;99.90
3684;DHT22;1858;48.716;9.648;2022-07-05T10:16:29;41.50;99.90
3684;DHT22;1858;48.716;9.648;2022-07-05T10:18:58;40.00;99.90
3684;DHT22;1858;48.716;9.648;2022-07-05T10:21:26;40.10;99.90
3684;DHT22;1858;48.716;9.648;2022-07-05T10:23:56;41.60;99.90
3684;DHT22;1858;48.716;9.648;2022-07-05T10:26:46;42.30;99.90
3684;DHT22;1858;48.716;9.648;2022-07-05T10:29:16;40.40;99.90
3684;DHT22;1858;48.716;9.648;2022-07-05T10:31:45;38.90;99.90
3684;DHT22;1858;48.716;9.648;2022-07-05T10:34:14;39.20;99.90
3684;DHT22;1858;48.716;9.648;2022-07-05T10:36:42;40.00;99.90
3684;DHT22;1858;48.716;9.648;2022-07-05T10:39:11;40.70;99.90
3684;DHT22;1858;48.716;9.648;2022-07-05T10:41:43;42.20;99.90
3684;DHT22;1858;48.716;9.648;2022-07-05T10:44:24;43.90;99.90
3684;DHT22;1858;48.716;9.648;2022-07-05T10:46:43;44.70;99.90
3684;DHT22;1858;48.716;9.648;2022-07-05T10:52:20;46.10;99.90
3684;DHT22;1858;48.716;9.648;2022-07-05T10:55:16;45.80;99.90
3684;DHT22;1858;48.716;9.648;2022-07-05T10:57:21;44.90;99.90
3684;DHT22;1858;48.716;9.648;2022-07-05T11:00:08;44.50;99.90
3684;DHT22;1858;48.716;9.648;2022-07-05T11:02:37;44.80;99.90
3684;DHT22;1858;48.716;9.648;2022-07-05T11:05:06;46.10;99.90
3684;DHT22;1858;48.716;9.648;2022-07-05T11:08:00;46.50;99.90
3684;DHT22;1858;48.716;9.648;2022-07-05T11:10:30;47.10;99.90
3684;DHT22;1858;48.716;9.648;2022-07-05T11:13:02;47.00;99.90
3684;DHT22;1858;48.716;9.648;2022-07-05T11:15:30;45.30;99.90
3684;DHT22;1858;48.716;9.648;2022-07-05T11:18:14;43.20;99.90
3684;DHT22;1858;48.716;9.648;2022-07-05T11:20:43;41.70;99.90
3684;DHT22;1858;48.716;9.648;2022-07-05T11:23:12;40.00;99.90
3684;DHT22;1858;48.716;9.648;2022-07-05T11:25:47;39.00;99.90
3684;DHT22;1858;48.716;9.648;2022-07-05T11:28:16;38.10;99.90
3684;DHT22;1858;48.716;9.648;2022-07-05T11:30:56;37.40;99.90
3684;DHT22;1858;48.716;9.648;2022-07-05T11:33:40;36.80;99.90
3684;DHT22;1858;48.716;9.648;2022-07-05T11:39:14;35.70;99.90
3684;DHT22;1858;48.716;9.648;2022-07-05T11:41:48;35.10;99.90
3684;DHT22;1858;48.716;9.648;2022-07-05T11:44:17;34.70;99.90
3684;DHT22;1858;48.716;9.648;2022-07-05T11:46:45;34.50;99.90
3684;DHT22;1858;48.716;9.648;2022-07-05T11:49:18;34.40;99.90
3684;DHT22;1858;48.716;9.648;2022-07-05T11:51:58;34.20;99.90
3684;DHT22;1858;48.716;9.648;2022-07-05T11:54:32;34.10;99.90
3684;DHT22;1858;48.716;9.648;2022-07-05T11:57:01;33.70;99.90
3684;DHT22;1858;48.716;9.648;2022-07-05T11:59:30;33.50;99.90
3684;DHT22;1858;48.716;9.648;2022-07-05T12:01:58;33.30;99.90
3684;DHT22;1858;48.716;9.648;2022-07-05T12:04:30;33.10;99.90
3684;DHT22;1858;48.716;9.648;2022-07-05T12:06:59;33.10;99.90
3684;DHT22;1858;48.716;9.648;2022-07-05T12:09:34;33.10;99.90
3684;DHT22;1858;48.716;9.648;2022-07-05T12:12:22;33.00;99.90
3684;DHT22;1858;48.716;9.648;2022-07-05T12:15:20;33.00;99.90
3684;DHT22;1858;48.716;9.648;2022-07-05T12:17:50;32.90;99.90
3684;DHT22;1858;48.716;9.648;2022-07-05T12:20:23;32.80;99.90
3684;DHT22;1858;48.716;9.648;2022-07-05T12:22:52;32.50;99.90
3684;DHT22;1858;48.716;9.648;2022-07-05T12:25:40;32.40;99.90
3684;DHT22;1858;48.716;9.648;2022-07-05T12:28:09;32.40;99.90
3684;DHT22;1858;48.716;9.648;2022-07-05T12:30:38;32.20;99.90
3684;DHT22;1858;48.716;9.648;2022-07-05T12:35:56;31.50;99.90
3684;DHT22;1858;48.716;9.648;2022-07-05T12:38:28;31.50;99.90
3684;DHT22;1858;48.716;9.648;2022-07-05T12:40:59;31.50;99.90
3684;DHT22;1858;48.716;9.648;2022-07-05T12:43:28;31.50;99.90
3684;DHT22;1858;48.716;9.648;2022-07-05T12:46:03;31.40;99.90
3684;DHT22;1858;48.716;9.648;2022-07-05T12:48:36;31.20;99.90
3684;DHT22;1858;48.716;9.648;2022-07-05T12:51:07;31.10;99.90
3684;DHT22;1858;48.716;9.648;2022-07-05T12:53:45;31.10;99.90
3684;DHT22;1858;48.716;9.648;2022-07-05T12:56:33;30.70;99.90
3684;DHT22;1858;48.716;9.648;2022-07-05T12:59:20;30.70;99.90
3684;DHT22;1858;48.716;9.648;2022-07-05T13:01:48;30.40;99.90
3684;DHT22;1858;48.716;9.648;2022-07-05T13:04:18;30.00;99.90
3684;DHT22;1858;48.716;9.648;2022-07-05T13:06:55;29.90;99.90
3684;DHT22;1858;48.716;9.648;2022-07-05T13:09:32;29.70;99.90
3684;DHT22;1858;48.716;9.648;2022-07-05T13:12:17;29.90;99.90
3684;DHT22;1858;48.716;9.648;2022-07-05T13:14:46;30.10;99.90
3684;DHT22;1858;48.716;9.648;2022-07-05T13:17:33;30.20;99.90
3684;DHT22;1858;48.716;9.648;2022-07-05T13:20:02;30.40;99.90
3684;DHT22;1858;48.716;9.648;2022-07-05T13:22:31;30.40;99.90
3684;DHT22;1858;48.716;9.648;2022-07-05T13:24:59;30.30;99.90
3684;DHT22;1858;48.716;9.648;2022-07-05T13:27:47;30.30;99.90
3684;DHT22;1858;48.716;9.648;2022-07-05T13:30:15;30.30;99.90
3684;DHT22;1858;48.716;9.648;2022-07-05T13:32:44;30.30;99.90
3684;DHT22;1858;48.716;9.648;2022-07-05T13:35:12;30.30;99.90
3684;DHT22;1858;48.716;9.648;2022-07-05T13:37:40;30.30;99.90
3684;DHT22;1858;48.716;9.648;2022-07-05T13:42:58;30.20;99.90
3684;DHT22;1858;48.716;9.648;2022-07-05T13:45:26;30.20;99.90
3684;DHT22;1858;48.716;9.648;2022-07-05T13:47:55;30.10;99.90
3684;DHT22;1858;48.716;9.648;2022-07-05T13:50:23;30.00;99.90
3684;DHT22;1858;48.716;9.648;2022-07-05T13:53:02;30.00;99.90
3684;DHT22;1858;48.716;9.648;2022-07-05T13:55:30;30.00;99.90
3684;DHT22;1858;48.716;9.648;2022-07-05T13:57:59;29.80;99.90
3684;DHT22;1858;48.716;9.648;2022-07-05T14:00:28;29.70;99.90
3684;DHT22;1858;48.716;9.648;2022-07-05T14:02:56;29.70;99.90
3684;DHT22;1858;48.716;9.648;2022-07-05T14:05:25;29.60;99.90
3684;DHT22;1858;48.716;9.648;2022-07-05T14:07:53;29.60;99.90
3684;DHT22;1858;48.716;9.648;2022-07-05T14:10:22;29.60;99.90
3684;DHT22;1858;48.716;9.648;2022-07-05T14:12:50;29.70;99.90
3684;DHT22;1858;48.716;9.648;2022-07-05T14:15:18;29.70;99.90
3684;DHT22;1858;48.716;9.648;2022-07-05T14:17:47;29.70;99.90
3684;DHT22;1858;48.716;9.648;2022-07-05T14:20:15;29.70;99.90
3684;DHT22;1858;48.716;9.648;2022-07-05T14:22:44;29.70;99.90
3684;DHT22;1858;48.716;9.648;2022-07-05T14:25:12;29.60;99.90
3684;DHT22;1858;48.716;9.648;2022-07-05T14:27:40;29.60;99.90
3684;DHT22;1858;48.716;9.648;2022-07-05T14:30:10;29.40;99.90
3684;DHT22;1858;48.716;9.648;2022-07-05T14:32:39;29.40;99.90
3684;DHT22;1858;48.716;9.648;2022-07-05T14:35:27;29.20;99.90
3684;DHT22;1858;48.716;9.648;2022-07-05T14:37:58;29.10;99.90
3684;DHT22;1858;48.716;9.648;2022-07-05T14:40:27;29.20;99.90
3684;DHT22;1858;48.716;9.648;2022-07-05T14:42:58;29.10;99.90
3684;DHT22;1858;48.716;9.648;2022-07-05T14:45:27;29.20;99.90
3684;DHT22;1858;48.716;9.648;2022-07-05T14:47:56;29.00;99.90
3684;DHT22;1858;48.716;9.648;2022-07-05T14:50:25;28.90;99.90
3684;DHT22;1858;48.716;9.648;2022-07-05T14:52:53;29.00;99.90
3684;DHT22;1858;48.716;9.648;2022-07-05T14:55:22;28.90;99.90
3684;DHT22;1858;48.716;9.648;2022-07-05T14:57:50;29.00;99.90
3684;DHT22;1858;48.716;9.648;2022-07-05T15:00:19;29.00;99.90
3684;DHT22;1858;48.716;9.648;2022-07-05T15:02:47;29.00;99.90
3684;DHT22;1858;48.716;9.648;2022-07-05T15:05:16;29.00;99.90
3684;DHT22;1858;48.716;9.648;2022-07-05T15:07:44;29.10;99.90
3684;DHT22;1858;48.716;9.648;2022-07-05T15:10:13;29.10;99.90
3684;DHT22;1858;48.716;9.648;2022-07-05T15:12:41;29.10;99.90
3684;DHT22;1858;48.716;9.648;2022-07-05T15:15:10;28.90;99.90
3684;DHT22;1858;48.716;9.648;2022-07-05T15:17:38;28.90;99.90
3684;DHT22;1858;48.716;9.648;2022-07-05T15:20:07;29.00;99.90
3684;DHT22;1858;48.716;9.648;2022-07-05T15:22:36;29.00;99.90
3684;DHT22;1858;48.716;9.648;2022-07-05T15:25:06;29.10;99.90
3684;DHT22;1858;48.716;9.648;2022-07-05T15:27:34;29.10;99.90
3684;DHT22;1858;48.716;9.648;2022-07-05T15:30:04;29.10;99.90
3684;DHT22;1858;48.716;9.648;2022-07-05T15:32:53;29.10;99.90
3684;DHT22;1858;48.716;9.648;2022-07-05T15:35:21;29.00;99.90
3684;DHT22;1858;48.716;9.648;2022-07-05T15:37:49;28.80;99.90
3684;DHT22;1858;48.716;9.648;2022-07-05T15:40:18;28.70;99.90
3684;DHT22;1858;48.716;9.648;2022-07-05T15:42:46;28.60;99.90
3684;DHT22;1858;48.716;9.648;2022-07-05T15:45:15;28.50;99.90
3684;DHT22;1858;48.716;9.648;2022-07-05T15:47:43;28.40;99.90
3684;DHT22;1858;48.716;9.648;2022-07-05T15:50:12;28.40;99.90
3684;DHT22;1858;48.716;9.648;2022-07-05T15:52:40;28.50;99.90
3684;DHT22;1858;48.716;9.648;2022-07-05T15:55:11;28.60;99.90
3684;DHT22;1858;48.716;9.648;2022-07-05T15:57:41;28.70;99.90
3684;DHT22;1858;48.716;9.648;2022-07-05T16:00:10;28.60;99.90
3684;DHT22;1858;48.716;9.648;2022-07-05T16:02:38;28.40;99.90
3684;DHT22;1858;48.716;9.648;2022-07-05T16:05:07;28.30;99.90
3684;DHT22;1858;48.716;9.648;2022-07-05T16:07:38;28.20;99.90
3684;DHT22;1858;48.716;9.648;2022-07-05T16:10:06;28.20;99.90
3684;DHT22;1858;48.716;9.648;2022-07-05T16:12:36;28.20;99.90
3684;DHT22;1858;48.716;9.648;2022-07-05T16:15:05;28.10;99.90
3684;DHT22;1858;48.716;9.648;2022-07-05T16:17:34;27.90;99.90
3684;DHT22;1858;48.716;9.648;2022-07-05T16:20:03;27.70;99.90
3684;DHT22;1858;48.716;9.648;2022-07-05T16:22:32;27.80;99.90
3684;DHT22;1858;48.716;9.648;2022-07-05T16:25:00;27.90;99.90
3684;DHT22;1858;48.716;9.648;2022-07-05T16:27:29;27.90;99.90
3684;DHT22;1858;48.716;9.648;2022-07-05T16:29:57;27.90;99.90
3684;DHT22;1858;48.716;9.648;2022-07-05T16:32:29;27.80;99.90
3684;DHT22;1858;48.716;9.648;2022-07-05T16:35:00;27.70;99.90
3684;DHT22;1858;48.716;9.648;2022-07-05T16:37:29;27.70;99.90
3684;DHT22;1858;48.716;9.648;2022-07-05T16:39:57;27.70;99.90
3684;DHT22;1858;48.716;9.648;2022-07-05T16:42:26;27.50;99.90